sensor_id;sensor_type;location;lat;lon;timestamp;pressure;altitude;pressure_sealevel;temperature;humidity
74552;BME280;63025;55.472;38.432;2023-05-29T00:01:14;100465.69;;;6.90;75.35
74552;BME280;63025;55.472;38.432;2023-05-29T00:03:44;100464.69;;;6.91;75.83
74552;BME280;63025;55.472;38.432;2023-05-29T00:06:10;100461.84;;;6.92;75.77
74552;BME280;63025;55.472;38.432;2023-05-29T00:08:36;100459.00;;;6.94;76.05
74552;BME280;63025;55.472;38.432;2023-05-29T00:11:02;100458.00;;;6.95;76.61
74552;BME280;63025;55.472;38.432;2023-05-29T00:13:28;100451.16;;;6.92;76.05
74552;BME280;63025;55.472;38.432;2023-05-29T00:15:54;100462.84;;;6.91;75.85
74552;BME280;63025;55.472;38.432;2023-05-29T00:18:19;100471.38;;;6.87;75.81
74552;BME280;63025;55.472;38.432;2023-05-29T00:20:46;100461.41;;;6.81;75.69
74552;BME280;63025;55.472;38.432;2023-05-29T00:23:12;100470.44;;;6.80;75.95
74552;BME280;63025;55.472;38.432;2023-05-29T00:25:37;100468.09;;;6.77;75.94
74552;BME280;63025;55.472;38.432;2023-05-29T00:28:06;100474.78;;;6.81;75.92
74552;BME280;63025;55.472;38.432;2023-05-29T00:30:32;100465.09;;;6.80;76.42
74552;BME280;63025;55.472;38.432;2023-05-29T00:32:59;100469.59;;;6.79;76.38
74552;BME280;63025;55.472;38.432;2023-05-29T00:35:24;100473.09;;;6.80;76.16
74552;BME280;63025;55.472;38.432;2023-05-29T00:37:50;100470.59;;;6.78;76.10
74552;BME280;63025;55.472;38.432;2023-05-29T00:40:16;100472.28;;;6.79;76.11
74552;BME280;63025;55.472;38.432;2023-05-29T00:42:42;100472.09;;;6.81;76.22
74552;BME280;63025;55.472;38.432;2023-05-29T00:45:08;100469.44;;;6.81;76.09
74552;BME280;63025;55.472;38.432;2023-05-29T00:47:34;100467.59;;;6.81;75.68
74552;BME280;63025;55.472;38.432;2023-05-29T00:50:01;100469.44;;;6.81;75.93
74552;BME280;63025;55.472;38.432;2023-05-29T00:52:29;100475.94;;;6.78;75.54
74552;BME280;63025;55.472;38.432;2023-05-29T00:54:56;100469.31;;;6.74;75.80
74552;BME280;63025;55.472;38.432;2023-05-29T00:57:23;100472.16;;;6.73;75.59
74552;BME280;63025;55.472;38.432;2023-05-29T00:59:50;100474.31;;;6.69;75.60
74552;BME280;63025;55.472;38.432;2023-05-29T01:02:16;100477.81;;;6.70;76.05
74552;BME280;63025;55.472;38.432;2023-05-29T01:04:43;100482.16;;;6.71;75.94
74552;BME280;63025;55.472;38.432;2023-05-29T01:07:10;100477.50;;;6.73;76.38
74552;BME280;63025;55.472;38.432;2023-05-29T01:09:36;100483.84;;;6.72;76.28
74552;BME280;63025;55.472;38.432;2023-05-29T01:12:16;100477.81;;;6.70;76.31
74552;BME280;63025;55.472;38.432;2023-05-29T01:14:50;100482.00;;;6.72;76.40
74552;BME280;63025;55.472;38.432;2023-05-29T01:20:01;100480.81;;;6.75;76.14
74552;BME280;63025;55.472;38.432;2023-05-29T01:22:40;100484.13;;;6.77;76.21
74552;BME280;63025;55.472;38.432;2023-05-29T01:25:24;100487.47;;;6.79;76.37
74552;BME280;63025;55.472;38.432;2023-05-29T01:27:55;100485.28;;;6.82;76.29
74552;BME280;63025;55.472;38.432;2023-05-29T01:30:23;100484.91;;;6.85;76.51
74552;BME280;63025;55.472;38.432;2023-05-29T01:32:51;100479.78;;;6.84;76.84
74552;BME280;63025;55.472;38.432;2023-05-29T01:35:17;100489.56;;;6.91;76.72
74552;BME280;63025;55.472;38.432;2023-05-29T01:37:43;100500.56;;;6.96;76.91
74552;BME280;63025;55.472;38.432;2023-05-29T01:40:09;100495.72;;;7.00;76.59
74552;BME280;63025;55.472;38.432;2023-05-29T01:42:35;100498.69;;;7.05;76.38
74552;BME280;63025;55.472;38.432;2023-05-29T01:45:01;100491.31;;;7.07;76.65
74552;BME280;63025;55.472;38.432;2023-05-29T01:47:30;100489.97;;;7.11;76.45
74552;BME280;63025;55.472;38.432;2023-05-29T01:49:56;100496.94;;;7.20;76.33
74552;BME280;63025;55.472;38.432;2023-05-29T01:52:22;100491.69;;;7.27;76.61
74552;BME280;63025;55.472;38.432;2023-05-29T01:54:48;100506.03;;;7.34;76.20
74552;BME280;63025;55.472;38.432;2023-05-29T01:57:14;100506.47;;;7.46;76.21
74552;BME280;63025;55.472;38.432;2023-05-29T01:59:40;100498.56;;;7.52;76.54
74552;BME280;63025;55.472;38.432;2023-05-29T02:02:08;100507.31;;;7.46;76.94
74552;BME280;63025;55.472;38.432;2023-05-29T02:04:34;100509.34;;;7.59;76.80
74552;BME280;63025;55.472;38.432;2023-05-29T02:07:00;100504.16;;;7.65;77.11
74552;BME280;63025;55.472;38.432;2023-05-29T02:09:25;100515.25;;;7.77;77.33
74552;BME280;63025;55.472;38.432;2023-05-29T02:11:51;100515.84;;;7.87;77.44
74552;BME280;63025;55.472;38.432;2023-05-29T02:14:18;100525.47;;;7.96;77.73
74552;BME280;63025;55.472;38.432;2023-05-29T02:16:44;100517.34;;;8.04;77.75
74552;BME280;63025;55.472;38.432;2023-05-29T02:19:10;100524.94;;;8.16;77.97
74552;BME280;63025;55.472;38.432;2023-05-29T02:21:56;100523.50;;;8.28;77.69
74552;BME280;63025;55.472;38.432;2023-05-29T02:24:22;100521.22;;;8.39;77.37
74552;BME280;63025;55.472;38.432;2023-05-29T02:26:48;100524.47;;;8.50;77.05
74552;BME280;63025;55.472;38.432;2023-05-29T02:29:15;100528.97;;;8.64;77.00
74552;BME280;63025;55.472;38.432;2023-05-29T02:31:41;100520.47;;;8.75;77.22
74552;BME280;63025;55.472;38.432;2023-05-29T02:34:07;100524.81;;;8.91;77.11
74552;BME280;63025;55.472;38.432;2023-05-29T02:36:33;100528.03;;;9.01;77.38
74552;BME280;63025;55.472;38.432;2023-05-29T02:39:03;100522.44;;;9.17;77.25
74552;BME280;63025;55.472;38.432;2023-05-29T02:41:29;100519.09;;;9.30;76.98
74552;BME280;63025;55.472;38.432;2023-05-29T02:43:54;100519.81;;;9.38;77.09
74552;BME280;63025;55.472;38.432;2023-05-29T02:46:20;100526.34;;;9.50;76.96
74552;BME280;63025;55.472;38.432;2023-05-29T02:48:48;100525.66;;;9.63;76.67
74552;BME280;63025;55.472;38.432;2023-05-29T02:51:14;100537.97;;;9.79;76.47
74552;BME280;63025;55.472;38.432;2023-05-29T02:53:40;100530.69;;;9.94;76.34
74552;BME280;63025;55.472;38.432;2023-05-29T02:56:07;100529.75;;;10.08;75.75
74552;BME280;63025;55.472;38.432;2023-05-29T02:58:34;100530.72;;;10.22;75.88
74552;BME280;63025;55.472;38.432;2023-05-29T03:01:01;100532.09;;;10.39;75.29
74552;BME280;63025;55.472;38.432;2023-05-29T03:03:28;100540.44;;;10.51;75.17
74552;BME280;63025;55.472;38.432;2023-05-29T03:05:53;100550.47;;;10.70;74.76
74552;BME280;63025;55.472;38.432;2023-05-29T03:08:19;100548.50;;;10.85;74.52
74552;BME280;63025;55.472;38.432;2023-05-29T03:10:45;100546.91;;;10.97;74.19
74552;BME280;63025;55.472;38.432;2023-05-29T03:13:14;100547.59;;;11.13;73.63
74552;BME280;63025;55.472;38.432;2023-05-29T03:15:49;100560.72;;;11.29;73.24
74552;BME280;63025;55.472;38.432;2023-05-29T03:18:17;100554.75;;;11.40;72.95
74552;BME280;63025;55.472;38.432;2023-05-29T03:20:43;100557.06;;;11.56;71.92
74552;BME280;63025;55.472;38.432;2023-05-29T03:23:09;100549.22;;;11.68;71.36
74552;BME280;63025;55.472;38.432;2023-05-29T03:25:35;100560.06;;;11.81;71.04
74552;BME280;63025;55.472;38.432;2023-05-29T03:28:01;100558.81;;;11.90;70.91
74552;BME280;63025;55.472;38.432;2023-05-29T03:30:27;100562.56;;;12.02;70.70
74552;BME280;63025;55.472;38.432;2023-05-29T03:32:54;100562.16;;;12.12;69.62
74552;BME280;63025;55.472;38.432;2023-05-29T03:35:30;100560.06;;;12.27;69.19
74552;BME280;63025;55.472;38.432;2023-05-29T03:37:55;100569.81;;;12.41;69.12
74552;BME280;63025;55.472;38.432;2023-05-29T03:40:21;100577.50;;;12.44;67.95
74552;BME280;63025;55.472;38.432;2023-05-29T03:42:47;100578.31;;;12.58;67.65
74552;BME280;63025;55.472;38.432;2023-05-29T03:45:15;100570.81;;;12.73;67.86
74552;BME280;63025;55.472;38.432;2023-05-29T03:47:42;100583.66;;;12.84;67.54
74552;BME280;63025;55.472;38.432;2023-05-29T03:50:08;100581.97;;;12.97;66.98
74552;BME280;63025;55.472;38.432;2023-05-29T03:52:35;100589.19;;;13.09;66.64
74552;BME280;63025;55.472;38.432;2023-05-29T03:55:02;100586.47;;;13.22;65.80
74552;BME280;63025;55.472;38.432;2023-05-29T03:57:30;100590.59;;;13.32;65.26
74552;BME280;63025;55.472;38.432;2023-05-29T03:59:55;100587.66;;;13.40;64.42
74552;BME280;63025;55.472;38.432;2023-05-29T04:02:22;100588.03;;;13.50;64.12
74552;BME280;63025;55.472;38.432;2023-05-29T04:04:48;100576.38;;;13.56;63.26
74552;BME280;63025;55.472;38.432;2023-05-29T04:07:14;100585.66;;;13.67;63.48
74552;BME280;63025;55.472;38.432;2023-05-29T04:09:41;100579.38;;;13.79;63.22
74552;BME280;63025;55.472;38.432;2023-05-29T04:12:07;100571.19;;;13.86;62.91
74552;BME280;63025;55.472;38.432;2023-05-29T04:14:34;100575.69;;;13.99;62.69
74552;BME280;63025;55.472;38.432;2023-05-29T04:17:00;100581.44;;;14.09;61.85
74552;BME280;63025;55.472;38.432;2023-05-29T04:19:26;100576.38;;;14.19;61.49
74552;BME280;63025;55.472;38.432;2023-05-29T04:21:52;100577.91;;;14.33;61.20
74552;BME280;63025;55.472;38.432;2023-05-29T04:24:18;100582.41;;;14.46;61.07
74552;BME280;63025;55.472;38.432;2023-05-29T04:26:44;100578.00;;;14.51;60.04
74552;BME280;63025;55.472;38.432;2023-05-29T04:29:11;100581.78;;;14.68;60.58
74552;BME280;63025;55.472;38.432;2023-05-29T04:31:39;100586.78;;;14.72;59.33
74552;BME280;63025;55.472;38.432;2023-05-29T04:34:05;100586.88;;;14.83;58.96
74552;BME280;63025;55.472;38.432;2023-05-29T04:36:32;100584.06;;;14.90;58.61
74552;BME280;63025;55.472;38.432;2023-05-29T04:39:06;100584.81;;;14.97;58.06
74552;BME280;63025;55.472;38.432;2023-05-29T04:41:35;100588.44;;;15.09;57.96
74552;BME280;63025;55.472;38.432;2023-05-29T04:44:03;100595.81;;;15.20;57.77
74552;BME280;63025;55.472;38.432;2023-05-29T04:46:38;100588.50;;;15.39;57.99
74552;BME280;63025;55.472;38.432;2023-05-29T04:49:03;100596.69;;;15.51;57.36
74552;BME280;63025;55.472;38.432;2023-05-29T04:51:30;100595.94;;;15.62;56.96
74552;BME280;63025;55.472;38.432;2023-05-29T04:53:56;100592.47;;;15.73;56.27
74552;BME280;63025;55.472;38.432;2023-05-29T04:56:23;100596.72;;;15.81;56.44
74552;BME280;63025;55.472;38.432;2023-05-29T04:58:49;100596.06;;;15.85;55.19
74552;BME280;63025;55.472;38.432;2023-05-29T05:01:15;100598.56;;;15.98;54.75
74552;BME280;63025;55.472;38.432;2023-05-29T05:03:41;100604.72;;;16.05;54.08
74552;BME280;63025;55.472;38.432;2023-05-29T05:06:07;100590.00;;;16.13;53.99
74552;BME280;63025;55.472;38.432;2023-05-29T05:08:34;100590.97;;;16.30;53.72
74552;BME280;63025;55.472;38.432;2023-05-29T05:11:01;100610.47;;;16.39;53.38
74552;BME280;63025;55.472;38.432;2023-05-29T05:13:27;100604.53;;;16.42;52.22
74552;BME280;63025;55.472;38.432;2023-05-29T05:15:53;100602.22;;;16.57;52.19
74552;BME280;63025;55.472;38.432;2023-05-29T05:18:19;100595.19;;;16.68;52.05
74552;BME280;63025;55.472;38.432;2023-05-29T05:20:53;100605.06;;;16.85;51.70
74552;BME280;63025;55.472;38.432;2023-05-29T05:23:20;100608.84;;;16.96;50.72
74552;BME280;63025;55.472;38.432;2023-05-29T05:25:47;100598.69;;;17.03;49.49
74552;BME280;63025;55.472;38.432;2023-05-29T05:28:13;100604.47;;;17.18;49.36
74552;BME280;63025;55.472;38.432;2023-05-29T05:30:38;100614.84;;;17.21;49.00
74552;BME280;63025;55.472;38.432;2023-05-29T05:33:04;100608.81;;;17.31;49.37
74552;BME280;63025;55.472;38.432;2023-05-29T05:35:31;100604.19;;;17.32;47.91
74552;BME280;63025;55.472;38.432;2023-05-29T05:37:57;100610.09;;;17.40;45.98
74552;BME280;63025;55.472;38.432;2023-05-29T05:40:27;100615.13;;;17.48;45.71
74552;BME280;63025;55.472;38.432;2023-05-29T05:42:59;100609.91;;;17.58;46.16
74552;BME280;63025;55.472;38.432;2023-05-29T05:45:44;100620.78;;;17.58;43.89
74552;BME280;63025;55.472;38.432;2023-05-29T05:48:12;100621.59;;;17.71;44.25
74552;BME280;63025;55.472;38.432;2023-05-29T05:50:38;100632.66;;;17.81;44.06
74552;BME280;63025;55.472;38.432;2023-05-29T05:53:04;100627.53;;;17.96;43.67
74552;BME280;63025;55.472;38.432;2023-05-29T05:55:30;100631.34;;;18.12;44.21
74552;BME280;63025;55.472;38.432;2023-05-29T05:57:56;100630.63;;;18.16;42.55
74552;BME280;63025;55.472;38.432;2023-05-29T06:00:23;100633.34;;;18.16;41.00
74552;BME280;63025;55.472;38.432;2023-05-29T06:02:55;100638.38;;;18.24;40.33
74552;BME280;63025;55.472;38.432;2023-05-29T06:05:39;100622.81;;;18.37;39.33
74552;BME280;63025;55.472;38.432;2023-05-29T06:08:06;100626.19;;;18.44;39.19
74552;BME280;63025;55.472;38.432;2023-05-29T06:10:34;100635.00;;;18.51;38.73
74552;BME280;63025;55.472;38.432;2023-05-29T06:13:00;100631.81;;;18.54;37.52
74552;BME280;63025;55.472;38.432;2023-05-29T06:15:36;100630.94;;;18.65;36.71
74552;BME280;63025;55.472;38.432;2023-05-29T06:18:04;100624.31;;;18.78;36.87
74552;BME280;63025;55.472;38.432;2023-05-29T06:20:30;100632.91;;;18.86;36.70
74552;BME280;63025;55.472;38.432;2023-05-29T06:22:56;100633.09;;;19.01;37.16
74552;BME280;63025;55.472;38.432;2023-05-29T06:25:23;100636.16;;;19.05;35.34
74552;BME280;63025;55.472;38.432;2023-05-29T06:27:56;100642.44;;;19.05;34.18
74552;BME280;63025;55.472;38.432;2023-05-29T06:30:21;100636.50;;;19.09;34.80
74552;BME280;63025;55.472;38.432;2023-05-29T06:32:48;100640.06;;;19.09;34.52
74552;BME280;63025;55.472;38.432;2023-05-29T06:35:14;100640.44;;;19.18;34.72
74552;BME280;63025;55.472;38.432;2023-05-29T06:37:40;100650.81;;;19.21;34.11
74552;BME280;63025;55.472;38.432;2023-05-29T06:40:06;100652.47;;;19.22;33.14
74552;BME280;63025;55.472;38.432;2023-05-29T06:42:34;100658.50;;;19.24;33.37
74552;BME280;63025;55.472;38.432;2023-05-29T06:45:07;100661.91;;;19.14;32.67
74552;BME280;63025;55.472;38.432;2023-05-29T06:47:33;100663.06;;;19.18;32.29
74552;BME280;63025;55.472;38.432;2023-05-29T06:50:00;100650.31;;;19.24;32.55
74552;BME280;63025;55.472;38.432;2023-05-29T06:52:26;100656.59;;;19.24;32.22
74552;BME280;63025;55.472;38.432;2023-05-29T06:55:11;100653.75;;;19.36;32.31
74552;BME280;63025;55.472;38.432;2023-05-29T06:57:37;100650.28;;;19.40;32.29
74552;BME280;63025;55.472;38.432;2023-05-29T07:00:06;100642.66;;;19.59;33.03
74552;BME280;63025;55.472;38.432;2023-05-29T07:02:39;100656.78;;;19.78;33.43
74552;BME280;63025;55.472;38.432;2023-05-29T07:05:05;100658.63;;;19.72;32.82
74552;BME280;63025;55.472;38.432;2023-05-29T07:07:31;100657.34;;;19.80;33.30
74552;BME280;63025;55.472;38.432;2023-05-29T07:09:57;100651.66;;;19.82;33.07
74552;BME280;63025;55.472;38.432;2023-05-29T07:12:23;100652.59;;;19.92;32.41
74552;BME280;63025;55.472;38.432;2023-05-29T07:14:49;100655.59;;;19.96;32.99
74552;BME280;63025;55.472;38.432;2023-05-29T07:17:15;100654.53;;;19.97;33.11
74552;BME280;63025;55.472;38.432;2023-05-29T07:19:42;100648.50;;;19.95;32.75
74552;BME280;63025;55.472;38.432;2023-05-29T07:22:09;100662.16;;;19.95;32.23
74552;BME280;63025;55.472;38.432;2023-05-29T07:24:36;100654.59;;;20.02;32.39
74552;BME280;63025;55.472;38.432;2023-05-29T07:27:04;100653.81;;;20.06;31.60
74552;BME280;63025;55.472;38.432;2023-05-29T07:29:32;100660.19;;;20.17;32.42
74552;BME280;63025;55.472;38.432;2023-05-29T07:31:58;100657.81;;;20.26;31.94
74552;BME280;63025;55.472;38.432;2023-05-29T07:34:24;100651.97;;;20.39;32.11
74552;BME280;63025;55.472;38.432;2023-05-29T07:37:03;100658.00;;;20.41;32.66
74552;BME280;63025;55.472;38.432;2023-05-29T07:39:32;100659.69;;;20.47;32.04
74552;BME280;63025;55.472;38.432;2023-05-29T07:42:02;100656.72;;;20.48;32.16
74552;BME280;63025;55.472;38.432;2023-05-29T07:44:28;100664.41;;;20.57;33.04
74552;BME280;63025;55.472;38.432;2023-05-29T07:46:54;100664.06;;;20.48;32.51
74552;BME280;63025;55.472;38.432;2023-05-29T07:49:33;100661.69;;;20.30;31.17
74552;BME280;63025;55.472;38.432;2023-05-29T07:52:02;100656.56;;;20.33;31.97
74552;BME280;63025;55.472;38.432;2023-05-29T07:54:29;100661.44;;;20.04;31.44
74552;BME280;63025;55.472;38.432;2023-05-29T07:56:55;100656.28;;;20.08;31.67
74552;BME280;63025;55.472;38.432;2023-05-29T07:59:21;100652.59;;;20.19;32.04
74552;BME280;63025;55.472;38.432;2023-05-29T08:01:48;100658.09;;;20.24;31.64
74552;BME280;63025;55.472;38.432;2023-05-29T08:04:34;100649.19;;;20.34;31.29
74552;BME280;63025;55.472;38.432;2023-05-29T08:07:00;100655.59;;;20.44;31.63
74552;BME280;63025;55.472;38.432;2023-05-29T08:09:26;100655.06;;;20.47;31.76
74552;BME280;63025;55.472;38.432;2023-05-29T08:11:52;100654.50;;;20.45;31.91
74552;BME280;63025;55.472;38.432;2023-05-29T08:14:18;100649.31;;;20.44;31.46
74552;BME280;63025;55.472;38.432;2023-05-29T08:16:44;100644.13;;;20.47;31.01
74552;BME280;63025;55.472;38.432;2023-05-29T08:19:10;100641.66;;;20.46;30.44
74552;BME280;63025;55.472;38.432;2023-05-29T08:21:36;100660.91;;;20.61;30.78
74552;BME280;63025;55.472;38.432;2023-05-29T08:24:03;100648.03;;;20.57;30.31
74552;BME280;63025;55.472;38.432;2023-05-29T08:26:32;100652.88;;;20.44;30.28
74552;BME280;63025;55.472;38.432;2023-05-29T08:28:58;100658.31;;;20.76;31.32
74552;BME280;63025;55.472;38.432;2023-05-29T08:31:24;100660.97;;;21.03;31.94
74552;BME280;63025;55.472;38.432;2023-05-29T08:33:53;100658.47;;;20.97;29.70
74552;BME280;63025;55.472;38.432;2023-05-29T08:36:19;100643.50;;;21.09;28.59
74552;BME280;63025;55.472;38.432;2023-05-29T08:38:48;100650.84;;;21.46;29.39
74552;BME280;63025;55.472;38.432;2023-05-29T08:42:01;100650.59;;;21.52;28.63
74552;BME280;63025;55.472;38.432;2023-05-29T08:44:08;100649.06;;;21.77;29.30
74552;BME280;63025;55.472;38.432;2023-05-29T08:46:55;100644.78;;;22.06;29.77
74552;BME280;63025;55.472;38.432;2023-05-29T08:49:22;100647.59;;;22.52;29.63
74552;BME280;63025;55.472;38.432;2023-05-29T08:51:55;100640.44;;;23.06;28.04
74552;BME280;63025;55.472;38.432;2023-05-29T08:54:23;100639.16;;;23.73;28.20
74552;BME280;63025;55.472;38.432;2023-05-29T08:56:49;100639.25;;;24.07;27.39
74552;BME280;63025;55.472;38.432;2023-05-29T08:59:15;100643.75;;;24.66;26.32
74552;BME280;63025;55.472;38.432;2023-05-29T09:01:43;100644.38;;;25.21;25.43
74552;BME280;63025;55.472;38.432;2023-05-29T09:04:09;100640.38;;;26.17;24.61
74552;BME280;63025;55.472;38.432;2023-05-29T09:06:36;100633.38;;;27.09;24.13
74552;BME280;63025;55.472;38.432;2023-05-29T09:09:02;100627.47;;;27.56;23.04
74552;BME280;63025;55.472;38.432;2023-05-29T09:11:29;100638.59;;;27.24;20.93
74552;BME280;63025;55.472;38.432;2023-05-29T09:13:55;100628.81;;;26.85;20.66
74552;BME280;63025;55.472;38.432;2023-05-29T09:16:23;100631.50;;;28.00;21.79
74552;BME280;63025;55.472;38.432;2023-05-29T09:18:49;100637.75;;;28.86;22.13
74552;BME280;63025;55.472;38.432;2023-05-29T09:21:26;100630.38;;;29.52;20.67
74552;BME280;63025;55.472;38.432;2023-05-29T09:23:54;100627.88;;;30.33;20.34
74552;BME280;63025;55.472;38.432;2023-05-29T09:26:21;100627.94;;;30.97;18.52
74552;BME280;63025;55.472;38.432;2023-05-29T09:28:49;100624.72;;;31.71;18.75
74552;BME280;63025;55.472;38.432;2023-05-29T09:31:15;100619.16;;;32.13;17.76
74552;BME280;63025;55.472;38.432;2023-05-29T09:33:49;100628.00;;;33.01;17.66
74552;BME280;63025;55.472;38.432;2023-05-29T09:36:22;100622.66;;;33.08;17.51
74552;BME280;63025;55.472;38.432;2023-05-29T09:38:49;100621.09;;;32.54;16.41
74552;BME280;63025;55.472;38.432;2023-05-29T09:41:22;100618.22;;;32.95;17.21
74552;BME280;63025;55.472;38.432;2023-05-29T09:43:52;100605.75;;;33.74;18.02
74552;BME280;63025;55.472;38.432;2023-05-29T09:46:20;100613.28;;;34.54;17.55
74552;BME280;63025;55.472;38.432;2023-05-29T09:48:46;100610.75;;;34.92;16.41
74552;BME280;63025;55.472;38.432;2023-05-29T09:51:22;100604.34;;;35.23;15.70
74552;BME280;63025;55.472;38.432;2023-05-29T09:53:49;100593.97;;;35.55;15.22
74552;BME280;63025;55.472;38.432;2023-05-29T09:56:17;100602.38;;;36.10;14.80
74552;BME280;63025;55.472;38.432;2023-05-29T09:58:44;100590.72;;;35.53;15.04
74552;BME280;63025;55.472;38.432;2023-05-29T10:01:14;100610.50;;;35.45;14.92
74552;BME280;63025;55.472;38.432;2023-05-29T10:03:43;100596.47;;;34.66;14.87
74552;BME280;63025;55.472;38.432;2023-05-29T10:06:16;100600.63;;;34.72;14.86
74552;BME280;63025;55.472;38.432;2023-05-29T10:08:50;100598.06;;;35.26;15.47
74552;BME280;63025;55.472;38.432;2023-05-29T10:11:21;100599.41;;;35.48;14.42
74552;BME280;63025;55.472;38.432;2023-05-29T10:13:52;100596.84;;;35.94;14.50
74552;BME280;63025;55.472;38.432;2023-05-29T10:16:22;100589.88;;;35.68;14.45
74552;BME280;63025;55.472;38.432;2023-05-29T10:18:57;100593.94;;;36.25;14.46
74552;BME280;63025;55.472;38.432;2023-05-29T10:21:27;100599.47;;;37.06;14.58
74552;BME280;63025;55.472;38.432;2023-05-29T10:23:54;100593.13;;;37.58;13.75
74552;BME280;63025;55.472;38.432;2023-05-29T10:26:24;100595.69;;;37.70;12.96
74552;BME280;63025;55.472;38.432;2023-05-29T10:31:46;100591.38;;;37.01;14.47
74552;BME280;63025;55.472;38.432;2023-05-29T10:36:55;100578.53;;;36.77;13.04
74552;BME280;63025;55.472;38.432;2023-05-29T10:39:23;100581.34;;;37.75;13.93
74552;BME280;63025;55.472;38.432;2023-05-29T10:41:49;100579.78;;;38.41;13.41
74552;BME280;63025;55.472;38.432;2023-05-29T10:44:37;100580.81;;;38.26;12.53
74552;BME280;63025;55.472;38.432;2023-05-29T10:47:05;100558.22;;;37.86;13.61
74552;BME280;63025;55.472;38.432;2023-05-29T10:49:31;100571.00;;;36.81;13.72
74552;BME280;63025;55.472;38.432;2023-05-29T10:51:58;100577.16;;;37.36;14.35
74552;BME280;63025;55.472;38.432;2023-05-29T10:54:26;100572.38;;;37.40;13.23
74552;BME280;63025;55.472;38.432;2023-05-29T10:57:00;100572.56;;;36.79;13.31
74552;BME280;63025;55.472;38.432;2023-05-29T10:59:26;100574.16;;;36.37;12.91
74552;BME280;63025;55.472;38.432;2023-05-29T11:01:54;100568.50;;;36.76;13.86
74552;BME280;63025;55.472;38.432;2023-05-29T11:06:47;100572.09;;;38.05;12.70
74552;BME280;63025;55.472;38.432;2023-05-29T11:09:39;100564.72;;;37.93;12.28
74552;BME280;63025;55.472;38.432;2023-05-29T11:12:22;100565.75;;;38.08;12.46
74552;BME280;63025;55.472;38.432;2023-05-29T11:15:09;100554.63;;;38.92;11.39
74552;BME280;63025;55.472;38.432;2023-05-29T11:20:56;100547.53;;;39.09;11.80
74552;BME280;63025;55.472;38.432;2023-05-29T11:25:24;100553.47;;;38.57;11.95
74552;BME280;63025;55.472;38.432;2023-05-29T11:27:51;100547.19;;;38.74;12.04
74552;BME280;63025;55.472;38.432;2023-05-29T11:30:20;100543.03;;;39.52;12.53
74552;BME280;63025;55.472;38.432;2023-05-29T11:32:47;100536.25;;;39.64;12.14
74552;BME280;63025;55.472;38.432;2023-05-29T11:35:14;100527.00;;;39.67;11.96
74552;BME280;63025;55.472;38.432;2023-05-29T11:37:42;100531.66;;;39.38;12.15
74552;BME280;63025;55.472;38.432;2023-05-29T11:40:09;100527.47;;;39.14;12.26
74552;BME280;63025;55.472;38.432;2023-05-29T11:42:35;100522.59;;;38.60;12.39
74552;BME280;63025;55.472;38.432;2023-05-29T11:45:11;100517.97;;;37.44;12.98
74552;BME280;63025;55.472;38.432;2023-05-29T11:47:58;100515.47;;;37.13;13.03
74552;BME280;63025;55.472;38.432;2023-05-29T11:50:31;100515.56;;;38.06;12.64
74552;BME280;63025;55.472;38.432;2023-05-29T11:52:58;100519.78;;;38.60;13.33
74552;BME280;63025;55.472;38.432;2023-05-29T11:55:26;100524.88;;;38.95;12.94
74552;BME280;63025;55.472;38.432;2023-05-29T11:57:59;100521.13;;;38.77;11.76
74552;BME280;63025;55.472;38.432;2023-05-29T12:00:30;100517.66;;;38.94;11.76
74552;BME280;63025;55.472;38.432;2023-05-29T12:02:57;100521.00;;;38.63;11.60
74552;BME280;63025;55.472;38.432;2023-05-29T12:05:23;100511.81;;;38.66;12.39
74552;BME280;63025;55.472;38.432;2023-05-29T12:07:51;100512.31;;;38.38;12.50
74552;BME280;63025;55.472;38.432;2023-05-29T12:10:19;100508.25;;;37.65;12.87
74552;BME280;63025;55.472;38.432;2023-05-29T12:12:55;100498.38;;;36.95;13.46
74552;BME280;63025;55.472;38.432;2023-05-29T12:15:22;100497.88;;;36.67;14.06
74552;BME280;63025;55.472;38.432;2023-05-29T12:17:49;100499.50;;;36.91;13.79
74552;BME280;63025;55.472;38.432;2023-05-29T12:20:16;100499.28;;;37.86;13.71
74552;BME280;63025;55.472;38.432;2023-05-29T12:22:44;100492.28;;;37.69;13.50
74552;BME280;63025;55.472;38.432;2023-05-29T12:25:12;100490.50;;;37.57;12.94
74552;BME280;63025;55.472;38.432;2023-05-29T12:27:43;100491.38;;;37.35;13.60
74552;BME280;63025;55.472;38.432;2023-05-29T12:30:29;100491.03;;;36.42;14.32
74552;BME280;63025;55.472;38.432;2023-05-29T12:32:55;100486.97;;;37.34;14.01
74552;BME280;63025;55.472;38.432;2023-05-29T12:35:25;100479.97;;;36.98;13.40
74552;BME280;63025;55.472;38.432;2023-05-29T12:37:59;100478.56;;;37.34;13.78
74552;BME280;63025;55.472;38.432;2023-05-29T12:40:27;100479.91;;;37.17;13.86
74552;BME280;63025;55.472;38.432;2023-05-29T12:42:58;100477.31;;;37.05;13.62
74552;BME280;63025;55.472;38.432;2023-05-29T12:45:25;100490.47;;;36.32;13.55
74552;BME280;63025;55.472;38.432;2023-05-29T12:47:53;100481.69;;;36.57;13.29
74552;BME280;63025;55.472;38.432;2023-05-29T12:50:26;100487.47;;;36.90;13.84
74552;BME280;63025;55.472;38.432;2023-05-29T12:52:57;100475.91;;;35.65;14.27
74552;BME280;63025;55.472;38.432;2023-05-29T12:55:24;100470.91;;;36.13;14.54
74552;BME280;63025;55.472;38.432;2023-05-29T12:57:50;100470.44;;;36.30;14.33
74552;BME280;63025;55.472;38.432;2023-05-29T13:00:17;100462.53;;;36.82;14.57
74552;BME280;63025;55.472;38.432;2023-05-29T13:02:44;100463.97;;;36.98;13.84
74552;BME280;63025;55.472;38.432;2023-05-29T13:05:10;100470.31;;;36.23;14.00